sensor_id;sensor_type;location;lat;lon;timestamp;temperature;humidity
26049;DHT22;13822;51.568;5.086;2022-10-31T06:12:27;12.50;99.90
26049;DHT22;13822;51.568;5.086;2022-10-31T06:17:31;12.50;99.90
26049;DHT22;13822;51.568;5.086;2022-10-31T06:22:34;12.50;99.90
26049;DHT22;13822;51.568;5.086;2022-10-31T06:27:36;12.40;99.90
26049;DHT22;13822;51.568;5.086;2022-10-31T06:32:38;12.50;99.90
26049;DHT22;13822;51.568;5.086;2022-10-31T06:37:39;12.50;99.90
26049;DHT22;13822;51.568;5.086;2022-10-31T06:42:45;12.40;99.90
26049;DHT22;13822;51.568;5.086;2022-10-31T06:47:51;12.40;99.90
26049;DHT22;13822;51.568;5.086;2022-10-31T06:53:14;12.50;99.90
26049;DHT22;13822;51.568;5.086;2022-10-31T06:58:16;12.50;99.90
26049;DHT22;13822;51.568;5.086;2022-10-31T07:03:18;12.60;99.90
26049;DHT22;13822;51.568;5.086;2022-10-31T07:08:21;12.60;99.90
26049;DHT22;13822;51.568;5.086;2022-10-31T07:13:23;12.60;99.90
26049;DHT22;13822;51.568;5.086;2022-10-31T07:18:28;12.70;99.90
26049;DHT22;13822;51.568;5.086;2022-10-31T07:23:30;12.70;99.90
26049;DHT22;13822;51.568;5.086;2022-10-31T07:28:32;12.80;99.90
26049;DHT22;13822;51.568;5.086;2022-10-31T07:33:34;12.80;99.90
26049;DHT22;13822;51.568;5.086;2022-10-31T07:38:36;12.90;99.90
26049;DHT22;13822;51.568;5.086;2022-10-31T07:43:37;13.00;99.90
26049;DHT22;13822;51.568;5.086;2022-10-31T07:48:39;13.00;99.90
26049;DHT22;13822;51.568;5.086;2022-10-31T07:53:41;13.10;99.90
26049;DHT22;13822;51.568;5.086;2022-10-31T07:58:43;13.10;99.90
26049;DHT22;13822;51.568;5.086;2022-10-31T08:03:45;13.20;99.90
26049;DHT22;13822;51.568;5.086;2022-10-31T08:08:47;13.30;99.90
26049;DHT22;13822;51.568;5.086;2022-10-31T08:13:49;13.40;99.90
26049;DHT22;13822;51.568;5.086;2022-10-31T08:18:50;13.40;99.90
26049;DHT22;13822;51.568;5.086;2022-10-31T08:23:53;13.50;99.90
26049;DHT22;13822;51.568;5.086;2022-10-31T08:28:55;13.60;99.90
26049;DHT22;13822;51.568;5.086;2022-10-31T08:33:57;13.80;99.90
26049;DHT22;13822;51.568;5.086;2022-10-31T08:38:59;13.90;99.90
26049;DHT22;13822;51.568;5.086;2022-10-31T08:44:02;13.90;99.90
26049;DHT22;13822;51.568;5.086;2022-10-31T08:49:04;14.00;99.90
26049;DHT22;13822;51.568;5.086;2022-10-31T08:54:06;14.00;99.90
26049;DHT22;13822;51.568;5.086;2022-10-31T08:59:08;14.00;99.90
26049;DHT22;13822;51.568;5.086;2022-10-31T09:04:10;14.10;99.90
26049;DHT22;13822;51.568;5.086;2022-10-31T09:09:11;14.20;99.90
26049;DHT22;13822;51.568;5.086;2022-10-31T09:14:13;14.30;99.90
26049;DHT22;13822;51.568;5.086;2022-10-31T09:19:15;14.40;99.90
26049;DHT22;13822;51.568;5.086;2022-10-31T09:24:17;14.50;99.90
26049;DHT22;13822;51.568;5.086;2022-10-31T09:29:19;14.50;99.90
26049;DHT22;13822;51.568;5.086;2022-10-31T09:34:21;14.50;99.90
26049;DHT22;13822;51.568;5.086;2022-10-31T09:39:22;14.60;99.90
26049;DHT22;13822;51.568;5.086;2022-10-31T09:55:04;14.80;99.90
26049;DHT22;13822;51.568;5.086;2022-10-31T10:00:14;14.90;99.90
26049;DHT22;13822;51.568;5.086;2022-10-31T10:05:20;14.90;99.90
26049;DHT22;13822;51.568;5.086;2022-10-31T10:26:36;15.00;99.90
26049;DHT22;13822;51.568;5.086;2022-10-31T10:31:40;15.00;99.90
26049;DHT22;13822;51.568;5.086;2022-10-31T10:36:55;15.10;99.90
26049;DHT22;13822;51.568;5.086;2022-10-31T10:41:59;15.10;99.90
26049;DHT22;13822;51.568;5.086;2022-10-31T10:47:20;15.20;99.90
26049;DHT22;13822;51.568;5.086;2022-10-31T10:57:56;15.30;99.90
26049;DHT22;13822;51.568;5.086;2022-10-31T11:03:01;15.40;99.90
26049;DHT22;13822;51.568;5.086;2022-10-31T11:08:04;15.40;99.90
26049;DHT22;13822;51.568;5.086;2022-10-31T11:13:17;15.50;99.90
26049;DHT22;13822;51.568;5.086;2022-10-31T11:18:24;15.50;99.90
26049;DHT22;13822;51.568;5.086;2022-10-31T11:23:28;15.60;99.90
26049;DHT22;13822;51.568;5.086;2022-10-31T11:28:31;15.60;99.90
26049;DHT22;13822;51.568;5.086;2022-10-31T11:33:46;15.60;99.90
26049;DHT22;13822;51.568;5.086;2022-10-31T11:38:50;15.70;99.90
26049;DHT22;13822;51.568;5.086;2022-10-31T11:43:56;15.80;99.90
26049;DHT22;13822;51.568;5.086;2022-10-31T11:48:59;15.80;99.90
26049;DHT22;13822;51.568;5.086;2022-10-31T11:54:01;15.90;99.90
26049;DHT22;13822;51.568;5.086;2022-10-31T11:59:05;16.00;99.90
26049;DHT22;13822;51.568;5.086;2022-10-31T12:04:37;16.00;99.90
26049;DHT22;13822;51.568;5.086;2022-10-31T12:09:41;16.10;99.90
26049;DHT22;13822;51.568;5.086;2022-10-31T12:14:50;16.20;99.90
26049;DHT22;13822;51.568;5.086;2022-10-31T12:42:24;16.50;99.90
26049;DHT22;13822;51.568;5.086;2022-10-31T13:03:48;16.90;99.90
26049;DHT22;13822;51.568;5.086;2022-10-31T13:08:56;17.10;99.90
26049;DHT22;13822;51.568;5.086;2022-10-31T13:24:11;17.20;99.90
26049;DHT22;13822;51.568;5.086;2022-10-31T13:29:17;17.30;99.90
26049;DHT22;13822;51.568;5.086;2022-10-31T13:34:23;17.30;99.90
26049;DHT22;13822;51.568;5.086;2022-10-31T13:45:07;17.30;99.90
26049;DHT22;13822;51.568;5.086;2022-10-31T13:50:28;17.40;99.90
26049;DHT22;13822;51.568;5.086;2022-10-31T13:55:44;17.40;99.90
26049;DHT22;13822;51.568;5.086;2022-10-31T14:00:57;17.30;99.90
26049;DHT22;13822;51.568;5.086;2022-10-31T14:06:00;17.30;99.90
26049;DHT22;13822;51.568;5.086;2022-10-31T14:11:02;17.30;99.90
26049;DHT22;13822;51.568;5.086;2022-10-31T14:16:05;17.40;99.90
26049;DHT22;13822;51.568;5.086;2022-10-31T14:47:39;17.50;99.90
26049;DHT22;13822;51.568;5.086;2022-10-31T14:52:48;17.50;99.90
26049;DHT22;13822;51.568;5.086;2022-10-31T14:57:58;17.50;99.90
26049;DHT22;13822;51.568;5.086;2022-10-31T15:03:11;17.60;99.90
26049;DHT22;13822;51.568;5.086;2022-10-31T15:08:32;17.60;99.90
26049;DHT22;13822;51.568;5.086;2022-10-31T15:14:00;17.60;99.90
26049;DHT22;13822;51.568;5.086;2022-10-31T15:19:03;17.50;99.90
26049;DHT22;13822;51.568;5.086;2022-10-31T15:24:10;17.50;99.90
26049;DHT22;13822;51.568;5.086;2022-10-31T15:29:14;17.40;99.90
26049;DHT22;13822;51.568;5.086;2022-10-31T15:34:21;17.30;99.90
26049;DHT22;13822;51.568;5.086;2022-10-31T15:39:26;17.20;99.90
26049;DHT22;13822;51.568;5.086;2022-10-31T15:44:30;17.20;99.90
26049;DHT22;13822;51.568;5.086;2022-10-31T15:54:47;17.00;99.90
26049;DHT22;13822;51.568;5.086;2022-10-31T15:59:50;16.90;99.90
26049;DHT22;13822;51.568;5.086;2022-10-31T16:05:00;16.80;99.90
26049;DHT22;13822;51.568;5.086;2022-10-31T16:10:03;16.70;99.90
26049;DHT22;13822;51.568;5.086;2022-10-31T16:15:05;16.50;99.90
26049;DHT22;13822;51.568;5.086;2022-10-31T16:20:19;16.40;99.90
